Big Bear Station Historical Data
Daily Summary for July 6, 2019 Units:  English    Metric   Both
Next Day »
Daily Weekly Monthly Yearly Custom
  High: Low: Average:
Temperature: 81 °F 43 °F 61.9 °F
Dew Point: 48.5 °F 27.5 °F 36.6 °F
Humidity: 73% 18% 42%
Wind Speed: 5.8mph 0mph 0.2mph
Wind Gust: -999mph - -
Wind- - WNW
Pressure: 23.63 in 23.57 in -
Precipitation: 0 in    
Historical Graphs
 
 
Tabular Data for July 6, 2019
Time Temperature Dew Point Pressure Wind Wind Speed Wind Gust Humidity Rainfall Rate (Hourly)
00:12 49.5 °F 29.6 °F 23.63 in Calm   -999 mph 46% 0.00 in
00:27 49.3 °F 28.8 °F 23.62 in Calm   -999 mph 45% 0.00 in
00:42 48.6 °F 28.7 °F 23.63 in Calm   -999 mph 46% 0.00 in
00:57 48.4 °F 27.5 °F 23.63 in Calm   -999 mph 44% 0.00 in
01:12 48 °F 28.2 °F 23.62 in Calm   -999 mph 46% 0.00 in
01:28 47.8 °F 31 °F 23.63 in Calm   -999 mph 52% 0.00 in
01:43 47.3 °F 31.9 °F 23.62 in Calm   -999 mph 55% 0.00 in
01:58 47.5 °F 31.2 °F 23.62 in Calm   -999 mph 53% 0.00 in
02:13 47.1 °F 30.8 °F 23.62 in Calm   -999 mph 53% 0.00 in
02:28 46.6 °F 31.3 °F 23.62 in Calm   -999 mph 55% 0.00 in
02:44 46.4 °F 33.3 °F 23.62 in Calm   -999 mph 60% 0.00 in
02:59 46.2 °F 33.5 °F 23.62 in Calm   -999 mph 61% 0.00 in
03:14 45.7 °F 30.5 °F 23.62 in Calm   -999 mph 55% 0.00 in
03:29 45.5 °F 32 °F 23.61 in Calm   -999 mph 59% 0.00 in
03:44 45 °F 32.4 °F 23.61 in Calm   -999 mph 61% 0.00 in
04:00 45 °F 32.8 °F 23.61 in Calm   -999 mph 62% 0.00 in
04:15 44.6 °F 32.4 °F 23.61 in Calm   -999 mph 62% 0.00 in
04:30 44.6 °F 29.4 °F 23.62 in Calm   -999 mph 55% 0.00 in
04:45 44.1 °F 29.4 °F 23.62 in Calm   -999 mph 56% 0.00 in
05:00 44.1 °F 31.1 °F 23.62 in Calm   -999 mph 60% 0.00 in
05:16 43.5 °F 27.5 °F 23.62 in Calm   -999 mph 53% 0.00 in
05:31 43.3 °F 28.2 °F 23.62 in Calm   -999 mph 55% 0.00 in
05:46 43.3 °F 31.9 °F 23.62 in Calm   -999 mph 64% 0.00 in
06:01 43.2 °F 31.5 °F 23.63 in Calm   -999 mph 63% 0.00 in
06:16 43 °F 29.2 °F 23.63 in Calm   -999 mph 58% 0.00 in
06:32 43 °F 31.3 °F 23.62 in Calm   -999 mph 63% 0.00 in
06:47 43.2 °F 33 °F 23.63 in Calm   -999 mph 67% 0.00 in
07:02 44.1 °F 34.9 °F 23.62 in Calm   -999 mph 70% 0.00 in
07:17 45.5 °F 37 °F 23.63 in Calm   -999 mph 72% 0.00 in
07:32 45.7 °F 37.5 °F 23.63 in Calm   -999 mph 73% 0.00 in
07:48 46.8 °F 38.6 °F 23.63 in Calm   -999 mph 73% 0.00 in
08:03 48.6 °F 40.3 °F 23.63 in Calm   -999 mph 73% 0.00 in
08:18 50.9 °F 41.8 °F 23.63 in Calm   -999 mph 71% 0.00 in
08:33 52.9 °F 43.4 °F 23.63 in Calm   -999 mph 70% 0.00 in
08:49 54.9 °F 41.7 °F 23.63 in Calm   -999 mph 61% 0.00 in
09:04 57.4 °F 38.4 °F 23.63 in Calm   -999 mph 49% 0.00 in
09:19 61.3 °F 32.7 °F 23.63 in Calm   -999 mph 34% 0.00 in
09:34 64.2 °F 32.1 °F 23.62 in Calm   -999 mph 30% 0.00 in
09:49 66.9 °F 33.6 °F 23.62 in Calm   -999 mph 29% 0.00 in
10:05 68.4 °F 34.9 °F 23.62 in Calm   -999 mph 29% 0.00 in
10:20 69.1 °F 33.7 °F 23.62 in Calm   -999 mph 27% 0.00 in
10:35 70.3 °F 36.5 °F 23.62 in Calm   -999 mph 29% 0.00 in
10:50 71.1 °F 37.2 °F 23.62 in Calm   -999 mph 29% 0.00 in
11:05 72 °F 37.1 °F 23.63 in Calm   -999 mph 28% 0.00 in
11:21 73.4 °F 37.4 °F 23.63 in Calm   -999 mph 27% 0.00 in
11:36 75.4 °F 38.1 °F 23.62 in Calm   -999 mph 26% 0.00 in
11:51 77.2 °F 35.4 °F 23.63 in Calm   -999 mph 22% 0.00 in
12:06 78.1 °F 39.4 °F 23.62 in WNW 3.7 mph -999 mph 25% 0.00 in
12:21 79 °F 31.9 °F 23.63 in Calm   -999 mph 18% 0.00 in
12:37 78.8 °F 40 °F 23.63 in Calm   -999 mph 25% 0.00 in
12:52 78.6 °F 42.8 °F 23.63 in NNW 1.1 mph -999 mph 28% 0.00 in
13:07 78.1 °F 42.3 °F 23.62 in Calm   -999 mph 28% 0.00 in
13:22 78.6 °F 40.9 °F 23.62 in Calm   -999 mph 26% 0.00 in
13:38 78.6 °F 43.7 °F 23.62 in Calm   -999 mph 29% 0.00 in
13:53 79.9 °F 43.9 °F 23.62 in NW 4.7 mph -999 mph 28% 0.00 in
14:08 79 °F 44 °F 23.62 in Calm   -999 mph 29% 0.00 in
14:24 79.5 °F 38.5 °F 23.61 in Calm   -999 mph 23% 0.00 in
14:39 79.2 °F 42.3 °F 23.61 in NNW 4.2 mph -999 mph 27% 0.00 in
14:54 78.6 °F 39.8 °F 23.61 in WNW 5.8 mph -999 mph 25% 0.00 in
15:09 79.2 °F 44.2 °F 23.61 in Calm   -999 mph 29% 0.00 in
15:25 78.8 °F 43.9 °F 23.61 in Calm   -999 mph 29% 0.00 in
15:40 80.2 °F 40.1 °F 23.60 in WNW 1.1 mph -999 mph 24% 0.00 in
15:55 78.8 °F 41 °F 23.59 in Calm   -999 mph 26% 0.00 in
16:11 78.8 °F 35.6 °F 23.59 in Calm   -999 mph 21% 0.00 in
16:26 77.4 °F 37.8 °F 23.59 in South 2.7 mph -999 mph 24% 0.00 in
16:41 79.2 °F 40.4 °F 23.59 in Calm   -999 mph 25% 0.00 in
16:56 79.5 °F 44.5 °F 23.59 in Calm   -999 mph 29% 0.00 in
17:11 79.9 °F 42.9 °F 23.58 in Calm   -999 mph 27% 0.00 in
17:27 81 °F 46.7 °F 23.58 in Calm   -999 mph 30% 0.00 in
17:42 79.5 °F 47.1 °F 23.58 in Calm   -999 mph 32% 0.00 in
17:57 78.4 °F 48.5 °F 23.58 in Calm   -999 mph 35% 0.00 in
18:12 77.5 °F 48.5 °F 23.58 in Calm   -999 mph 36% 0.00 in
18:27 76.5 °F 46.1 °F 23.57 in Calm   -999 mph 34% 0.00 in
18:43 76.5 °F 46.8 °F 23.57 in Calm   -999 mph 35% 0.00 in
18:58 74.5 °F 46.5 °F 23.57 in Calm   -999 mph 37% 0.00 in
19:13 72.9 °F 46.5 °F 23.57 in Calm   -999 mph 39% 0.00 in
19:28 68.5 °F 45.7 °F 23.57 in Calm   -999 mph 44% 0.00 in
19:43 66.4 °F 44.4 °F 23.57 in Calm   -999 mph 45% 0.00 in
19:59 64.6 °F 42.2 °F 23.57 in Calm   -999 mph 44% 0.00 in
20:14 63.9 °F 41 °F 23.57 in Calm   -999 mph 43% 0.00 in
20:29 63 °F 38.3 °F 23.57 in Calm   -999 mph 40% 0.00 in
20:44 62.6 °F 36.6 °F 23.57 in Calm   -999 mph 38% 0.00 in
20:59 62.2 °F 34.2 °F 23.57 in Calm   -999 mph 35% 0.00 in
21:15 61.5 °F 33.6 °F 23.57 in Calm   -999 mph 35% 0.00 in
21:30 61.2 °F 34.7 °F 23.58 in Calm   -999 mph 37% 0.00 in
21:45 60.4 °F 33.3 °F 23.58 in Calm   -999 mph 36% 0.00 in
22:00 59.7 °F 32.7 °F 23.58 in Calm   -999 mph 36% 0.00 in
22:16 59.4 °F 32.4 °F 23.58 in Calm   -999 mph 36% 0.00 in
22:31 58.6 °F 31.7 °F 23.58 in Calm   -999 mph 36% 0.00 in
22:46 57.9 °F 30.4 °F 23.58 in Calm   -999 mph 35% 0.00 in
23:01 57.2 °F 29.8 °F 23.58 in Calm   -999 mph 35% 0.00 in
23:16 56.7 °F 30 °F 23.58 in Calm   -999 mph 36% 0.00 in
23:32 56.1 °F 32.7 °F 23.58 in Calm   -999 mph 41% 0.00 in
23:47 55.2 °F 32.5 °F 23.58 in Calm   -999 mph 42% 0.00 in
Big Bear CA Weather